Wilson Norfolk — 9HA2466 — position and weather

sailwx.info

Track history (hours):
 
Tides and Currents Weather Stations Pressure Air Temp Water Temp Dewpoint Dewpoint Depression Visibility Wind Speed Wind Dir Waves Ship Positions

Wilson Norfolk

Last reported at 2016-Sep-19 07:32 UTC. Time now 2016-Sep-25 07:13 UTC.
Position N 55°51' W 007°07'.

Length 123 m; draft 7.3 m.

Type: Ship. MMSI: 248678000.

Date/timePositionNaut miles runAvg speedWind from/ knotsBaromVisibWave heightAir tempDewpointWater temp
2016-Sep-19 07:32N 55°51' W 007°07'205 9.8
2016-Sep-18 10:33N 58°42' W 003°36'9 9.0
2016-Sep-18 09:33N 58°43' W 003°19'30411.6
2016-Sep-17 07:21N 57°51' E 006°11'2413.4
2016-Sep-17 05:33N 57°48' E 006°56'117 9.8
2016-Sep-16 17:32N 57°42' E 010°36'0 0.0
2016-Sep-16 15:26N 57°42' E 010°36'8 2.8
2016-Sep-16 12:28N 57°35' E 010°44'4413.1
2016-Sep-16 09:08N 56°51' E 010°48'1710.8
2016-Sep-16 07:34N 56°58' E 010°20'13 3.3
2016-Sep-16 03:32N 57°04' E 009°58'0 0.0
2016-Sep-16 02:32N 57°04' E 009°58'0 0.0
2016-Sep-16 00:32N 57°04' E 009°58'0 0.0
2016-Sep-15 22:32N 57°04' E 009°58'0 0.0
2016-Sep-15 21:32N 57°04' E 009°58'0 0.0
2016-Sep-15 20:32N 57°04' E 009°58'0 0.0
2016-Sep-15 18:32N 57°04' E 009°58'0 0.0
2016-Sep-15 12:26N 57°04' E 009°58'0 0.0
2016-Sep-15 11:26N 57°04' E 009°58'0 0.0
2016-Sep-15 04:32N 57°04' E 009°58'0 0.0
2016-Sep-15 03:32N 57°04' E 009°58'0 0.0
2016-Sep-15 01:32N 57°04' E 009°58'0 0.0
2016-Sep-14 22:29N 57°04' E 009°58'0 0.0
2016-Sep-14 21:32N 57°04' E 009°58'0 0.0
2016-Sep-14 17:32N 57°04' E 009°58'0 0.0
2016-Sep-14 16:32N 57°04' E 009°58'18 6.0
2016-Sep-14 13:33N 56°56' E 010°28'1 0.7
2016-Sep-14 12:33N 56°56' E 010°29'0 0.0
2016-Sep-14 10:33N 56°56' E 010°29'0 0.0
2016-Sep-14 09:33N 56°56' E 010°29'0 0.0
2016-Sep-14 08:33N 56°56' E 010°29'0 0.0
2016-Sep-14 07:33N 56°56' E 010°29'0 0.0
2016-Sep-14 06:33N 56°56' E 010°29'0 0.0
2016-Sep-14 03:33N 56°56' E 010°29'0 0.0
2016-Sep-13 22:33N 56°56' E 010°29'0 0.0
2016-Sep-13 20:33N 56°56' E 010°29'0 0.0
2016-Sep-13 18:33N 56°56' E 010°29'0 0.0
2016-Sep-13 17:32N 56°56' E 010°29'0 0.0
2016-Sep-13 16:30N 56°56' E 010°29'0 0.0
2016-Sep-13 11:23N 56°56' E 010°29'2 0.8
2016-Sep-13 09:26N 56°54' E 010°30'2211.5
2016-Sep-13 07:33N 56°41' E 011°02'1212.4
2016-Sep-13 06:33N 56°29' E 011°08'2211.1
2016-Sep-13 04:33N 56°20' E 011°44'2612.8
2016-Sep-13 02:33N 56°10' E 012°26'30 9.9
2016-Sep-12 23:31N 55°41' E 012°38'0 0.1
2016-Sep-12 21:31N 55°41' E 012°39'0 0.0
2016-Sep-12 19:31N 55°41' E 012°39'0 0.0
2016-Sep-12 17:31N 55°41' E 012°39'0 0.0
2016-Sep-12 14:31N 55°41' E 012°39'0 0.0
2016-Sep-12 13:31N 55°41' E 012°39'0 0.0
2016-Sep-12 12:31N 55°41' E 012°39'0 0.0
2016-Sep-12 11:31N 55°41' E 012°39'0 0.0
2016-Sep-12 10:31N 55°41' E 012°39'0 0.0
2016-Sep-12 07:31N 55°41' E 012°39'0 0.0
2016-Sep-12 06:31N 55°41' E 012°39'0 0.0
2016-Sep-12 03:31N 55°41' E 012°39'0 0.0
2016-Sep-12 01:31N 55°41' E 012°39'0 0.0
2016-Sep-11 23:31N 55°41' E 012°39'0 0.0
2016-Sep-11 22:31N 55°41' E 012°39'0 0.0
2016-Sep-11 21:31N 55°41' E 012°39'0 0.0
2016-Sep-11 20:31N 55°41' E 012°39'0 0.0
2016-Sep-11 19:31N 55°41' E 012°39'0 0.0
2016-Sep-11 18:31N 55°41' E 012°39'0 0.0
2016-Sep-11 17:31N 55°41' E 012°39'0 0.0
2016-Sep-11 16:31N 55°41' E 012°39'0 0.0
2016-Sep-11 15:31N 55°41' E 012°39'0 0.0
2016-Sep-11 14:31N 55°41' E 012°39'0 0.0
2016-Sep-11 13:31N 55°41' E 012°39'0 0.0
2016-Sep-11 12:31N 55°41' E 012°39'0 0.0
2016-Sep-11 11:31N 55°41' E 012°39'0 0.0
2016-Sep-11 10:31N 55°41' E 012°39'0 0.0
2016-Sep-11 08:34N 55°41' E 012°39'6 6.3
2016-Sep-11 07:33N 55°47' E 012°42'4410.9
2016-Sep-11 03:33N 56°24' E 012°00'1211.6
2016-Sep-11 02:33N 56°35' E 011°56'1211.6
2016-Sep-11 01:33N 56°46' E 011°51'1212.0
2016-Sep-11 00:33N 56°58' E 011°43'1211.9
2016-Sep-10 23:33N 57°09' E 011°36'1111.2
2016-Sep-10 22:33N 57°19' E 011°29'1111.3
2016-Sep-10 21:33N 57°30' E 011°20'1211.9
2016-Sep-10 20:33N 57°38' E 011°04'1212.3
2016-Sep-10 19:33N 57°46' E 010°46'1211.8
2016-Sep-10 18:33N 57°47' E 010°24'1313.2
2016-Sep-10 17:33N 57°45' E 009°59'8812.6
2016-Sep-10 10:33N 57°42' E 007°14'1212.1
2016-Sep-10 09:32N 57°43' E 006°51'1111.3
2016-Sep-10 08:33N 57°45' E 006°30'1211.4
2016-Sep-10 07:31N 57°53' E 006°14'1311.2
2016-Sep-10 06:24N 58°01' E 005°56'1910.4
2016-Sep-10 04:33N 58°13' E 005°28'10 9.9
2016-Sep-10 03:33N 58°20' E 005°14'10 9.8
2016-Sep-10 02:33N 58°27' E 005°01'10 9.9
2016-Sep-10 01:33N 58°34' E 004°48'10 9.9
2016-Sep-10 00:33N 58°42' E 004°35'10 9.6
2016-Sep-09 23:33N 58°49' E 004°23'9 9.4
2016-Sep-09 22:33N 58°55' E 004°10'  
Track history (hours):
 
Tides and Currents Weather Stations Pressure Air Temp Water Temp Dewpoint Dewpoint Depression Visibility Wind Speed Wind Dir Waves Ship Positions

Wilson Norfolk

Last reported at 2016-Sep-19 07:32 UTC. Time now 2016-Sep-25 07:13 UTC.
Position N 55°51' W 007°07'.

Length 123 m; draft 7.3 m.

Type: Ship. MMSI: 248678000.

Date/timePositionNaut miles runAvg speedWind from/ knotsBaromVisibWave heightAir tempDewpointWater temp
2016-Sep-19 07:32N 55°51' W 007°07'205 9.8
2016-Sep-18 10:33N 58°42' W 003°36'9 9.0
2016-Sep-18 09:33N 58°43' W 003°19'30411.6
2016-Sep-17 07:21N 57°51' E 006°11'2413.4
2016-Sep-17 05:33N 57°48' E 006°56'117 9.8
2016-Sep-16 17:32N 57°42' E 010°36'0 0.0
2016-Sep-16 15:26N 57°42' E 010°36'8 2.8
2016-Sep-16 12:28N 57°35' E 010°44'4413.1
2016-Sep-16 09:08N 56°51' E 010°48'1710.8
2016-Sep-16 07:34N 56°58' E 010°20'13 3.3
2016-Sep-16 03:32N 57°04' E 009°58'0 0.0
2016-Sep-16 02:32N 57°04' E 009°58'0 0.0
2016-Sep-16 00:32N 57°04' E 009°58'0 0.0
2016-Sep-15 22:32N 57°04' E 009°58'0 0.0
2016-Sep-15 21:32N 57°04' E 009°58'0 0.0
2016-Sep-15 20:32N 57°04' E 009°58'0 0.0
2016-Sep-15 18:32N 57°04' E 009°58'0 0.0
2016-Sep-15 12:26N 57°04' E 009°58'0 0.0
2016-Sep-15 11:26N 57°04' E 009°58'0 0.0
2016-Sep-15 04:32N 57°04' E 009°58'0 0.0
2016-Sep-15 03:32N 57°04' E 009°58'0 0.0
2016-Sep-15 01:32N 57°04' E 009°58'0 0.0
2016-Sep-14 22:29N 57°04' E 009°58'0 0.0
2016-Sep-14 21:32N 57°04' E 009°58'0 0.0
2016-Sep-14 17:32N 57°04' E 009°58'0 0.0
2016-Sep-14 16:32N 57°04' E 009°58'18 6.0
2016-Sep-14 13:33N 56°56' E 010°28'1 0.7
2016-Sep-14 12:33N 56°56' E 010°29'0 0.0
2016-Sep-14 10:33N 56°56' E 010°29'0 0.0
2016-Sep-14 09:33N 56°56' E 010°29'0 0.0
2016-Sep-14 08:33N 56°56' E 010°29'0 0.0
2016-Sep-14 07:33N 56°56' E 010°29'0 0.0
2016-Sep-14 06:33N 56°56' E 010°29'0 0.0
2016-Sep-14 03:33N 56°56' E 010°29'0 0.0
2016-Sep-13 22:33N 56°56' E 010°29'0 0.0
2016-Sep-13 20:33N 56°56' E 010°29'0 0.0
2016-Sep-13 18:33N 56°56' E 010°29'0 0.0
2016-Sep-13 17:32N 56°56' E 010°29'0 0.0
2016-Sep-13 16:30N 56°56' E 010°29'0 0.0
2016-Sep-13 11:23N 56°56' E 010°29'2 0.8
2016-Sep-13 09:26N 56°54' E 010°30'2211.5
2016-Sep-13 07:33N 56°41' E 011°02'1212.4
2016-Sep-13 06:33N 56°29' E 011°08'2211.1
2016-Sep-13 04:33N 56°20' E 011°44'2612.8
2016-Sep-13 02:33N 56°10' E 012°26'30 9.9
2016-Sep-12 23:31N 55°41' E 012°38'0 0.1
2016-Sep-12 21:31N 55°41' E 012°39'0 0.0
2016-Sep-12 19:31N 55°41' E 012°39'0 0.0
2016-Sep-12 17:31N 55°41' E 012°39'0 0.0
2016-Sep-12 14:31N 55°41' E 012°39'0 0.0
2016-Sep-12 13:31N 55°41' E 012°39'0 0.0
2016-Sep-12 12:31N 55°41' E 012°39'0 0.0
2016-Sep-12 11:31N 55°41' E 012°39'0 0.0
2016-Sep-12 10:31N 55°41' E 012°39'0 0.0
2016-Sep-12 07:31N 55°41' E 012°39'0 0.0
2016-Sep-12 06:31N 55°41' E 012°39'0 0.0
2016-Sep-12 03:31N 55°41' E 012°39'0 0.0
2016-Sep-12 01:31N 55°41' E 012°39'0 0.0
2016-Sep-11 23:31N 55°41' E 012°39'0 0.0
2016-Sep-11 22:31N 55°41' E 012°39'0 0.0
2016-Sep-11 21:31N 55°41' E 012°39'0 0.0
2016-Sep-11 20:31N 55°41' E 012°39'0 0.0
2016-Sep-11 19:31N 55°41' E 012°39'0 0.0
2016-Sep-11 18:31N 55°41' E 012°39'0 0.0
2016-Sep-11 17:31N 55°41' E 012°39'0 0.0
2016-Sep-11 16:31N 55°41' E 012°39'0 0.0
2016-Sep-11 15:31N 55°41' E 012°39'0 0.0
2016-Sep-11 14:31N 55°41' E 012°39'0 0.0
2016-Sep-11 13:31N 55°41' E 012°39'0 0.0
2016-Sep-11 12:31N 55°41' E 012°39'0 0.0
2016-Sep-11 11:31N 55°41' E 012°39'0 0.0
2016-Sep-11 10:31N 55°41' E 012°39'0 0.0
2016-Sep-11 08:34N 55°41' E 012°39'6 6.3
2016-Sep-11 07:33N 55°47' E 012°42'4410.9
2016-Sep-11 03:33N 56°24' E 012°00'1211.6
2016-Sep-11 02:33N 56°35' E 011°56'1211.6
2016-Sep-11 01:33N 56°46' E 011°51'1212.0
2016-Sep-11 00:33N 56°58' E 011°43'1211.9
2016-Sep-10 23:33N 57°09' E 011°36'1111.2
2016-Sep-10 22:33N 57°19' E 011°29'1111.3
2016-Sep-10 21:33N 57°30' E 011°20'1211.9
2016-Sep-10 20:33N 57°38' E 011°04'1212.3
2016-Sep-10 19:33N 57°46' E 010°46'1211.8
2016-Sep-10 18:33N 57°47' E 010°24'1313.2
2016-Sep-10 17:33N 57°45' E 009°59'8812.6
2016-Sep-10 10:33N 57°42' E 007°14'1212.1
2016-Sep-10 09:32N 57°43' E 006°51'1111.3
2016-Sep-10 08:33N 57°45' E 006°30'1211.4
2016-Sep-10 07:31N 57°53' E 006°14'1311.2
2016-Sep-10 06:24N 58°01' E 005°56'1910.4
2016-Sep-10 04:33N 58°13' E 005°28'10 9.9
2016-Sep-10 03:33N 58°20' E 005°14'10 9.8
2016-Sep-10 02:33N 58°27' E 005°01'10 9.9
2016-Sep-10 01:33N 58°34' E 004°48'10 9.9
2016-Sep-10 00:33N 58°42' E 004°35'10 9.6
2016-Sep-09 23:33N 58°49' E 004°23'9 9.4
2016-Sep-09 22:33N 58°55' E 004°10'  

Dump ship's entire track history